sensor_id;sensor_type;location;lat;lon;timestamp;P1;durP1;ratioP1;P2;durP2;ratioP2
42972;SDS011;28610;51.214;6.962;2022-10-16T00:00:47;6.63;;;3.80;;
42972;SDS011;28610;51.214;6.962;2022-10-16T00:03:33;8.00;;;4.20;;
42972;SDS011;28610;51.214;6.962;2022-10-16T00:06:19;7.17;;;4.00;;
42972;SDS011;28610;51.214;6.962;2022-10-16T00:09:07;13.63;;;3.93;;
42972;SDS011;28610;51.214;6.962;2022-10-16T00:11:53;8.17;;;4.00;;
42972;SDS011;28610;51.214;6.962;2022-10-16T00:14:38;7.83;;;4.17;;
42972;SDS011;28610;51.214;6.962;2022-10-16T00:17:25;10.53;;;4.60;;
42972;SDS011;28610;51.214;6.962;2022-10-16T00:20:10;9.03;;;4.20;;
42972;SDS011;28610;51.214;6.962;2022-10-16T00:22:56;13.17;;;4.67;;
42972;SDS011;28610;51.214;6.962;2022-10-16T00:25:43;8.17;;;4.60;;
42972;SDS011;28610;51.214;6.962;2022-10-16T00:28:28;10.40;;;5.00;;
42972;SDS011;28610;51.214;6.962;2022-10-16T00:31:14;9.93;;;5.47;;
42972;SDS011;28610;51.214;6.962;2022-10-16T00:34:01;11.43;;;5.60;;
42972;SDS011;28610;51.214;6.962;2022-10-16T00:36:46;9.10;;;5.47;;
42972;SDS011;28610;51.214;6.962;2022-10-16T00:39:32;11.50;;;5.00;;
42972;SDS011;28610;51.214;6.962;2022-10-16T00:42:19;10.07;;;5.87;;
42972;SDS011;28610;51.214;6.962;2022-10-16T00:45:04;11.40;;;5.40;;
42972;SDS011;28610;51.214;6.962;2022-10-16T00:47:51;10.70;;;5.40;;
42972;SDS011;28610;51.214;6.962;2022-10-16T00:50:38;13.80;;;5.53;;
42972;SDS011;28610;51.214;6.962;2022-10-16T00:53:26;6.83;;;5.00;;
42972;SDS011;28610;51.214;6.962;2022-10-16T00:56:12;9.90;;;5.40;;
42972;SDS011;28610;51.214;6.962;2022-10-16T00:58:59;8.13;;;5.00;;
42972;SDS011;28610;51.214;6.962;2022-10-16T01:01:48;8.43;;;5.43;;
42972;SDS011;28610;51.214;6.962;2022-10-16T01:04:35;10.40;;;5.37;;
42972;SDS011;28610;51.214;6.962;2022-10-16T01:07:27;10.20;;;5.47;;
42972;SDS011;28610;51.214;6.962;2022-10-16T01:10:23;9.87;;;6.00;;
42972;SDS011;28610;51.214;6.962;2022-10-16T01:13:16;10.43;;;5.57;;
42972;SDS011;28610;51.214;6.962;2022-10-16T01:16:07;9.37;;;5.80;;
42972;SDS011;28610;51.214;6.962;2022-10-16T01:19:00;9.90;;;5.30;;
42972;SDS011;28610;51.214;6.962;2022-10-16T01:21:53;10.93;;;5.80;;
42972;SDS011;28610;51.214;6.962;2022-10-16T01:24:40;12.90;;;5.63;;
42972;SDS011;28610;51.214;6.962;2022-10-16T01:27:30;11.07;;;5.30;;
42972;SDS011;28610;51.214;6.962;2022-10-16T01:30:21;8.13;;;5.20;;
42972;SDS011;28610;51.214;6.962;2022-10-16T01:33:13;7.40;;;5.07;;
42972;SDS011;28610;51.214;6.962;2022-10-16T01:36:02;8.63;;;4.83;;
42972;SDS011;28610;51.214;6.962;2022-10-16T01:38:54;7.53;;;4.60;;
42972;SDS011;28610;51.214;6.962;2022-10-16T01:41:45;12.00;;;4.73;;
42972;SDS011;28610;51.214;6.962;2022-10-16T01:44:34;9.50;;;4.40;;
42972;SDS011;28610;51.214;6.962;2022-10-16T01:47:22;11.03;;;4.50;;
42972;SDS011;28610;51.214;6.962;2022-10-16T01:50:10;8.90;;;4.73;;
42972;SDS011;28610;51.214;6.962;2022-10-16T01:52:59;6.73;;;4.27;;
42972;SDS011;28610;51.214;6.962;2022-10-16T01:55:47;7.10;;;4.40;;
42972;SDS011;28610;51.214;6.962;2022-10-16T01:58:35;8.27;;;4.47;;
42972;SDS011;28610;51.214;6.962;2022-10-16T02:01:26;9.33;;;4.30;;
42972;SDS011;28610;51.214;6.962;2022-10-16T02:04:15;7.93;;;4.70;;
42972;SDS011;28610;51.214;6.962;2022-10-16T02:07:03;9.63;;;4.97;;
42972;SDS011;28610;51.214;6.962;2022-10-16T02:09:49;8.77;;;4.80;;
42972;SDS011;28610;51.214;6.962;2022-10-16T02:12:35;9.80;;;5.30;;
42972;SDS011;28610;51.214;6.962;2022-10-16T02:15:23;8.03;;;4.97;;
42972;SDS011;28610;51.214;6.962;2022-10-16T02:18:10;8.90;;;5.33;;
42972;SDS011;28610;51.214;6.962;2022-10-16T02:20:57;8.27;;;5.43;;
42972;SDS011;28610;51.214;6.962;2022-10-16T02:23:45;8.90;;;5.17;;
42972;SDS011;28610;51.214;6.962;2022-10-16T02:26:36;9.30;;;4.90;;
42972;SDS011;28610;51.214;6.962;2022-10-16T02:29:27;8.53;;;4.63;;
42972;SDS011;28610;51.214;6.962;2022-10-16T02:32:13;9.33;;;4.70;;
42972;SDS011;28610;51.214;6.962;2022-10-16T02:35:03;9.50;;;4.97;;
42972;SDS011;28610;51.214;6.962;2022-10-16T02:37:50;11.10;;;4.97;;
42972;SDS011;28610;51.214;6.962;2022-10-16T02:40:36;7.60;;;4.80;;
42972;SDS011;28610;51.214;6.962;2022-10-16T02:43:22;6.00;;;4.13;;
42972;SDS011;28610;51.214;6.962;2022-10-16T02:46:09;12.33;;;4.90;;
42972;SDS011;28610;51.214;6.962;2022-10-16T02:48:54;9.07;;;4.90;;
42972;SDS011;28610;51.214;6.962;2022-10-16T02:51:41;9.50;;;5.10;;
42972;SDS011;28610;51.214;6.962;2022-10-16T02:54:26;10.87;;;4.70;;
42972;SDS011;28610;51.214;6.962;2022-10-16T02:57:12;7.73;;;4.60;;
42972;SDS011;28610;51.214;6.962;2022-10-16T02:59:57;7.67;;;4.07;;
42972;SDS011;28610;51.214;6.962;2022-10-16T03:02:43;9.60;;;4.60;;
42972;SDS011;28610;51.214;6.962;2022-10-16T03:05:28;5.43;;;4.00;;
42972;SDS011;28610;51.214;6.962;2022-10-16T03:08:15;4.43;;;3.70;;
42972;SDS011;28610;51.214;6.962;2022-10-16T03:11:01;5.87;;;3.80;;
42972;SDS011;28610;51.214;6.962;2022-10-16T03:13:46;8.83;;;3.80;;
42972;SDS011;28610;51.214;6.962;2022-10-16T03:16:31;5.67;;;3.60;;
42972;SDS011;28610;51.214;6.962;2022-10-16T03:19:17;8.50;;;4.37;;
42972;SDS011;28610;51.214;6.962;2022-10-16T03:22:02;10.80;;;4.57;;
42972;SDS011;28610;51.214;6.962;2022-10-16T03:24:49;6.30;;;4.00;;
42972;SDS011;28610;51.214;6.962;2022-10-16T03:27:34;9.20;;;4.03;;
42972;SDS011;28610;51.214;6.962;2022-10-16T03:30:20;8.47;;;4.60;;
42972;SDS011;28610;51.214;6.962;2022-10-16T03:33:05;6.70;;;4.10;;
42972;SDS011;28610;51.214;6.962;2022-10-16T03:35:51;7.40;;;4.40;;
42972;SDS011;28610;51.214;6.962;2022-10-16T03:38:37;9.30;;;4.23;;
42972;SDS011;28610;51.214;6.962;2022-10-16T03:41:24;8.20;;;4.20;;
42972;SDS011;28610;51.214;6.962;2022-10-16T03:44:09;6.23;;;4.33;;
42972;SDS011;28610;51.214;6.962;2022-10-16T03:46:55;9.00;;;3.90;;
42972;SDS011;28610;51.214;6.962;2022-10-16T03:49:40;6.90;;;4.00;;
42972;SDS011;28610;51.214;6.962;2022-10-16T03:52:26;6.80;;;3.80;;
42972;SDS011;28610;51.214;6.962;2022-10-16T03:55:11;7.00;;;3.93;;
42972;SDS011;28610;51.214;6.962;2022-10-16T03:57:58;6.53;;;3.70;;
42972;SDS011;28610;51.214;6.962;2022-10-16T04:00:44;6.43;;;3.80;;
42972;SDS011;28610;51.214;6.962;2022-10-16T04:03:31;10.10;;;4.03;;
42972;SDS011;28610;51.214;6.962;2022-10-16T04:06:16;6.23;;;3.90;;
42972;SDS011;28610;51.214;6.962;2022-10-16T04:09:01;5.40;;;3.80;;
42972;SDS011;28610;51.214;6.962;2022-10-16T04:11:46;7.10;;;3.93;;
42972;SDS011;28610;51.214;6.962;2022-10-16T04:14:33;9.23;;;3.93;;
42972;SDS011;28610;51.214;6.962;2022-10-16T04:17:19;6.77;;;3.80;;
42972;SDS011;28610;51.214;6.962;2022-10-16T04:20:05;5.37;;;3.90;;
42972;SDS011;28610;51.214;6.962;2022-10-16T04:22:51;6.67;;;3.60;;
42972;SDS011;28610;51.214;6.962;2022-10-16T04:25:36;7.70;;;4.13;;
42972;SDS011;28610;51.214;6.962;2022-10-16T04:28:21;8.23;;;4.17;;
42972;SDS011;28610;51.214;6.962;2022-10-16T04:31:08;6.53;;;4.13;;
42972;SDS011;28610;51.214;6.962;2022-10-16T04:33:54;10.27;;;4.00;;
42972;SDS011;28610;51.214;6.962;2022-10-16T04:36:39;8.23;;;3.83;;
42972;SDS011;28610;51.214;6.962;2022-10-16T04:39:25;8.57;;;3.97;;
42972;SDS011;28610;51.214;6.962;2022-10-16T04:42:10;4.27;;;3.47;;
42972;SDS011;28610;51.214;6.962;2022-10-16T04:44:55;7.90;;;3.70;;
42972;SDS011;28610;51.214;6.962;2022-10-16T04:47:42;6.47;;;3.60;;
42972;SDS011;28610;51.214;6.962;2022-10-16T04:50:27;6.73;;;3.90;;
42972;SDS011;28610;51.214;6.962;2022-10-16T04:53:12;9.27;;;4.00;;
42972;SDS011;28610;51.214;6.962;2022-10-16T04:55:58;7.23;;;3.67;;
42972;SDS011;28610;51.214;6.962;2022-10-16T04:58:43;7.57;;;4.53;;
42972;SDS011;28610;51.214;6.962;2022-10-16T05:01:29;8.47;;;4.23;;
42972;SDS011;28610;51.214;6.962;2022-10-16T05:04:15;7.77;;;4.03;;
42972;SDS011;28610;51.214;6.962;2022-10-16T05:07:01;8.67;;;3.90;;
42972;SDS011;28610;51.214;6.962;2022-10-16T05:09:46;7.23;;;4.27;;
42972;SDS011;28610;51.214;6.962;2022-10-16T05:12:32;8.67;;;4.10;;
42972;SDS011;28610;51.214;6.962;2022-10-16T05:15:17;6.67;;;4.30;;
42972;SDS011;28610;51.214;6.962;2022-10-16T05:18:03;6.03;;;3.80;;
42972;SDS011;28610;51.214;6.962;2022-10-16T05:20:49;7.13;;;3.90;;
42972;SDS011;28610;51.214;6.962;2022-10-16T05:23:35;7.57;;;4.30;;
42972;SDS011;28610;51.214;6.962;2022-10-16T05:26:20;7.97;;;4.43;;
42972;SDS011;28610;51.214;6.962;2022-10-16T05:29:05;7.07;;;4.03;;
42972;SDS011;28610;51.214;6.962;2022-10-16T05:31:51;9.63;;;4.60;;
42972;SDS011;28610;51.214;6.962;2022-10-16T05:34:37;10.10;;;4.63;;
42972;SDS011;28610;51.214;6.962;2022-10-16T05:37:23;6.90;;;4.10;;
42972;SDS011;28610;51.214;6.962;2022-10-16T05:40:09;8.20;;;4.40;;
42972;SDS011;28610;51.214;6.962;2022-10-16T05:42:55;7.03;;;4.40;;
42972;SDS011;28610;51.214;6.962;2022-10-16T05:45:40;7.57;;;4.70;;
42972;SDS011;28610;51.214;6.962;2022-10-16T05:48:26;12.40;;;5.03;;
42972;SDS011;28610;51.214;6.962;2022-10-16T05:51:12;9.93;;;5.47;;
42972;SDS011;28610;51.214;6.962;2022-10-16T05:53:59;9.50;;;5.13;;
42972;SDS011;28610;51.214;6.962;2022-10-16T05:56:45;13.03;;;5.30;;
42972;SDS011;28610;51.214;6.962;2022-10-16T05:59:30;9.60;;;4.80;;
42972;SDS011;28610;51.214;6.962;2022-10-16T06:02:16;8.20;;;4.90;;
42972;SDS011;28610;51.214;6.962;2022-10-16T06:05:01;6.63;;;5.00;;
42972;SDS011;28610;51.214;6.962;2022-10-16T06:07:46;7.90;;;5.20;;
42972;SDS011;28610;51.214;6.962;2022-10-16T06:10:33;9.07;;;4.83;;
42972;SDS011;28610;51.214;6.962;2022-10-16T06:13:18;8.23;;;5.03;;
42972;SDS011;28610;51.214;6.962;2022-10-16T06:16:04;9.40;;;4.30;;
42972;SDS011;28610;51.214;6.962;2022-10-16T06:18:50;7.50;;;4.73;;
42972;SDS011;28610;51.214;6.962;2022-10-16T06:21:36;8.63;;;4.90;;
42972;SDS011;28610;51.214;6.962;2022-10-16T06:24:22;9.20;;;5.10;;
42972;SDS011;28610;51.214;6.962;2022-10-16T06:27:08;9.57;;;5.03;;
42972;SDS011;28610;51.214;6.962;2022-10-16T06:29:54;7.60;;;4.83;;
42972;SDS011;28610;51.214;6.962;2022-10-16T06:32:39;11.40;;;4.93;;
42972;SDS011;28610;51.214;6.962;2022-10-16T06:35:24;10.30;;;4.77;;
42972;SDS011;28610;51.214;6.962;2022-10-16T06:38:10;6.53;;;4.23;;
42972;SDS011;28610;51.214;6.962;2022-10-16T06:40:55;7.10;;;4.40;;
42972;SDS011;28610;51.214;6.962;2022-10-16T06:43:42;7.17;;;4.60;;
42972;SDS011;28610;51.214;6.962;2022-10-16T06:46:28;6.60;;;4.20;;
42972;SDS011;28610;51.214;6.962;2022-10-16T06:49:14;9.23;;;4.87;;
42972;SDS011;28610;51.214;6.962;2022-10-16T06:52:04;7.47;;;3.80;;
42972;SDS011;28610;51.214;6.962;2022-10-16T06:54:50;9.13;;;4.20;;
42972;SDS011;28610;51.214;6.962;2022-10-16T06:57:35;6.40;;;4.17;;
42972;SDS011;28610;51.214;6.962;2022-10-16T07:00:22;7.67;;;4.43;;
42972;SDS011;28610;51.214;6.962;2022-10-16T07:03:07;7.00;;;4.40;;
42972;SDS011;28610;51.214;6.962;2022-10-16T07:05:53;8.47;;;4.60;;
42972;SDS011;28610;51.214;6.962;2022-10-16T07:08:39;8.00;;;4.00;;
42972;SDS011;28610;51.214;6.962;2022-10-16T07:11:25;6.53;;;4.37;;
42972;SDS011;28610;51.214;6.962;2022-10-16T07:14:12;8.70;;;4.27;;
42972;SDS011;28610;51.214;6.962;2022-10-16T07:17:02;6.63;;;4.63;;
42972;SDS011;28610;51.214;6.962;2022-10-16T07:19:47;8.43;;;4.00;;
42972;SDS011;28610;51.214;6.962;2022-10-16T07:22:33;10.00;;;4.50;;
42972;SDS011;28610;51.214;6.962;2022-10-16T07:25:18;9.10;;;4.30;;
42972;SDS011;28610;51.214;6.962;2022-10-16T07:28:03;6.63;;;4.13;;
42972;SDS011;28610;51.214;6.962;2022-10-16T07:30:49;7.63;;;4.43;;
42972;SDS011;28610;51.214;6.962;2022-10-16T07:33:36;7.77;;;4.47;;
42972;SDS011;28610;51.214;6.962;2022-10-16T07:36:22;11.80;;;4.50;;
42972;SDS011;28610;51.214;6.962;2022-10-16T07:39:08;8.97;;;4.80;;
42972;SDS011;28610;51.214;6.962;2022-10-16T07:41:53;8.87;;;4.40;;
42972;SDS011;28610;51.214;6.962;2022-10-16T07:44:38;6.60;;;4.47;;
42972;SDS011;28610;51.214;6.962;2022-10-16T07:47:24;7.77;;;4.47;;
42972;SDS011;28610;51.214;6.962;2022-10-16T07:50:11;10.60;;;4.60;;
42972;SDS011;28610;51.214;6.962;2022-10-16T07:52:56;6.20;;;4.80;;
42972;SDS011;28610;51.214;6.962;2022-10-16T07:55:42;5.97;;;4.60;;
42972;SDS011;28610;51.214;6.962;2022-10-16T07:58:28;7.07;;;4.30;;
42972;SDS011;28610;51.214;6.962;2022-10-16T08:01:14;8.03;;;4.10;;
42972;SDS011;28610;51.214;6.962;2022-10-16T08:04:00;8.17;;;4.40;;
42972;SDS011;28610;51.214;6.962;2022-10-16T08:06:47;7.60;;;4.30;;
42972;SDS011;28610;51.214;6.962;2022-10-16T08:09:33;9.47;;;4.17;;
42972;SDS011;28610;51.214;6.962;2022-10-16T08:12:18;5.90;;;4.37;;
42972;SDS011;28610;51.214;6.962;2022-10-16T08:15:04;6.63;;;4.10;;
42972;SDS011;28610;51.214;6.962;2022-10-16T08:17:54;8.17;;;4.00;;
42972;SDS011;28610;51.214;6.962;2022-10-16T08:20:40;7.63;;;3.67;;
42972;SDS011;28610;51.214;6.962;2022-10-16T08:23:28;6.10;;;3.63;;
42972;SDS011;28610;51.214;6.962;2022-10-16T08:26:13;6.53;;;3.40;;
42972;SDS011;28610;51.214;6.962;2022-10-16T08:28:59;6.40;;;3.50;;
42972;SDS011;28610;51.214;6.962;2022-10-16T08:31:44;10.97;;;5.10;;
42972;SDS011;28610;51.214;6.962;2022-10-16T08:34:30;5.83;;;3.40;;
42972;SDS011;28610;51.214;6.962;2022-10-16T08:37:15;6.63;;;3.17;;
42972;SDS011;28610;51.214;6.962;2022-10-16T08:40:02;5.67;;;3.00;;
42972;SDS011;28610;51.214;6.962;2022-10-16T08:42:53;4.83;;;2.63;;
42972;SDS011;28610;51.214;6.962;2022-10-16T08:46:14;5.20;;;2.80;;
42972;SDS011;28610;51.214;6.962;2022-10-16T08:49:12;6.80;;;2.77;;
42972;SDS011;28610;51.214;6.962;2022-10-16T08:51:58;6.43;;;2.97;;
42972;SDS011;28610;51.214;6.962;2022-10-16T08:54:44;6.23;;;2.93;;
42972;SDS011;28610;51.214;6.962;2022-10-16T08:57:34;5.33;;;2.50;;
42972;SDS011;28610;51.214;6.962;2022-10-16T09:00:19;6.10;;;2.77;;
42972;SDS011;28610;51.214;6.962;2022-10-16T09:03:06;6.97;;;2.53;;
42972;SDS011;28610;51.214;6.962;2022-10-16T09:06:07;4.37;;;2.37;;
42972;SDS011;28610;51.214;6.962;2022-10-16T09:09:07;4.50;;;2.57;;
42972;SDS011;28610;51.214;6.962;2022-10-16T09:12:12;4.90;;;2.60;;
42972;SDS011;28610;51.214;6.962;2022-10-16T09:15:11;3.60;;;2.60;;
42972;SDS011;28610;51.214;6.962;2022-10-16T09:18:03;4.77;;;2.63;;
42972;SDS011;28610;51.214;6.962;2022-10-16T09:20:56;3.03;;;2.13;;
42972;SDS011;28610;51.214;6.962;2022-10-16T09:23:49;4.60;;;2.30;;
42972;SDS011;28610;51.214;6.962;2022-10-16T09:26:35;4.43;;;2.60;;
42972;SDS011;28610;51.214;6.962;2022-10-16T09:29:21;8.43;;;2.60;;
42972;SDS011;28610;51.214;6.962;2022-10-16T09:32:11;5.00;;;2.50;;
42972;SDS011;28610;51.214;6.962;2022-10-16T09:34:59;5.83;;;2.50;;
42972;SDS011;28610;51.214;6.962;2022-10-16T09:37:44;4.10;;;2.17;;
42972;SDS011;28610;51.214;6.962;2022-10-16T09:40:32;5.67;;;2.43;;
42972;SDS011;28610;51.214;6.962;2022-10-16T09:43:21;4.33;;;2.33;;
42972;SDS011;28610;51.214;6.962;2022-10-16T09:46:20;9.13;;;2.60;;
42972;SDS011;28610;51.214;6.962;2022-10-16T09:49:19;4.00;;;1.90;;
42972;SDS011;28610;51.214;6.962;2022-10-16T09:52:11;5.63;;;2.33;;
42972;SDS011;28610;51.214;6.962;2022-10-16T09:54:59;6.37;;;2.40;;
42972;SDS011;28610;51.214;6.962;2022-10-16T09:57:49;5.90;;;2.30;;
42972;SDS011;28610;51.214;6.962;2022-10-16T10:00:34;7.03;;;2.10;;
42972;SDS011;28610;51.214;6.962;2022-10-16T10:03:25;4.90;;;2.10;;
42972;SDS011;28610;51.214;6.962;2022-10-16T10:06:23;3.87;;;2.17;;
42972;SDS011;28610;51.214;6.962;2022-10-16T10:09:16;7.13;;;2.10;;
42972;SDS011;28610;51.214;6.962;2022-10-16T10:12:04;3.60;;;2.00;;
42972;SDS011;28610;51.214;6.962;2022-10-16T10:14:51;4.73;;;2.10;;
42972;SDS011;28610;51.214;6.962;2022-10-16T10:17:44;5.07;;;1.93;;
42972;SDS011;28610;51.214;6.962;2022-10-16T10:20:32;3.72;;;2.10;;
42972;SDS011;28610;51.214;6.962;2022-10-16T10:23:24;4.22;;;1.90;;
42972;SDS011;28610;51.214;6.962;2022-10-16T10:26:11;5.15;;;2.00;;
42972;SDS011;28610;51.214;6.962;2022-10-16T10:29:01;4.18;;;1.80;;
42972;SDS011;28610;51.214;6.962;2022-10-16T10:32:00;4.35;;;1.80;;
42972;SDS011;28610;51.214;6.962;2022-10-16T10:35:01;6.45;;;1.80;;
42972;SDS011;28610;51.214;6.962;2022-10-16T10:38:01;7.32;;;1.90;;
42972;SDS011;28610;51.214;6.962;2022-10-16T10:41:04;2.75;;;1.80;;
42972;SDS011;28610;51.214;6.962;2022-10-16T10:44:11;2.45;;;1.80;;
42972;SDS011;28610;51.214;6.962;2022-10-16T10:47:01;2.42;;;1.50;;
42972;SDS011;28610;51.214;6.962;2022-10-16T10:50:02;6.10;;;1.90;;
42972;SDS011;28610;51.214;6.962;2022-10-16T10:52:59;3.72;;;1.55;;
42972;SDS011;28610;51.214;6.962;2022-10-16T10:55:54;4.53;;;1.80;;
42972;SDS011;28610;51.214;6.962;2022-10-16T11:02:02;3.60;;;1.60;;
42972;SDS011;28610;51.214;6.962;2022-10-16T11:05:10;6.15;;;1.80;;
42972;SDS011;28610;51.214;6.962;2022-10-16T11:08:07;4.32;;;1.60;;
42972;SDS011;28610;51.214;6.962;2022-10-16T11:10:58;5.10;;;1.67;;
42972;SDS011;28610;51.214;6.962;2022-10-16T11:13:49;6.32;;;1.88;;
42972;SDS011;28610;51.214;6.962;2022-10-16T11:16:42;3.00;;;1.48;;
42972;SDS011;28610;51.214;6.962;2022-10-16T11:19:33;6.80;;;1.70;;
42972;SDS011;28610;51.214;6.962;2022-10-16T11:22:25;5.57;;;1.60;;
42972;SDS011;28610;51.214;6.962;2022-10-16T11:25:16;3.92;;;1.88;;
42972;SDS011;28610;51.214;6.962;2022-10-16T11:28:07;2.92;;;1.45;;
42972;SDS011;28610;51.214;6.962;2022-10-16T11:30:59;4.55;;;1.77;;
42972;SDS011;28610;51.214;6.962;2022-10-16T11:33:51;3.70;;;1.90;;
42972;SDS011;28610;51.214;6.962;2022-10-16T11:36:44;3.33;;;1.75;;
42972;SDS011;28610;51.214;6.962;2022-10-16T11:39:33;4.82;;;1.90;;
42972;SDS011;28610;51.214;6.962;2022-10-16T11:42:21;3.83;;;1.58;;
42972;SDS011;28610;51.214;6.962;2022-10-16T11:45:15;4.40;;;1.73;;
42972;SDS011;28610;51.214;6.962;2022-10-16T11:48:14;3.75;;;1.80;;
42972;SDS011;28610;51.214;6.962;2022-10-16T11:51:07;4.82;;;1.77;;
42972;SDS011;28610;51.214;6.962;2022-10-16T11:53:59;4.85;;;1.80;;
42972;SDS011;28610;51.214;6.962;2022-10-16T11:56:52;5.28;;;1.70;;
42972;SDS011;28610;51.214;6.962;2022-10-16T11:59:42;5.07;;;1.67;;
42972;SDS011;28610;51.214;6.962;2022-10-16T12:02:32;5.40;;;1.80;;
42972;SDS011;28610;51.214;6.962;2022-10-16T12:05:24;4.85;;;2.22;;
42972;SDS011;28610;51.214;6.962;2022-10-16T12:08:19;4.47;;;1.65;;
42972;SDS011;28610;51.214;6.962;2022-10-16T12:11:06;4.57;;;1.50;;
42972;SDS011;28610;51.214;6.962;2022-10-16T12:14:03;3.35;;;1.50;;
42972;SDS011;28610;51.214;6.962;2022-10-16T12:17:03;4.18;;;1.77;;
42972;SDS011;28610;51.214;6.962;2022-10-16T12:23:16;3.00;;;1.73;;
42972;SDS011;28610;51.214;6.962;2022-10-16T12:26:06;5.40;;;1.80;;
42972;SDS011;28610;51.214;6.962;2022-10-16T12:28:52;4.25;;;1.60;;
42972;SDS011;28610;51.214;6.962;2022-10-16T12:31:38;6.95;;;1.70;;
42972;SDS011;28610;51.214;6.962;2022-10-16T12:34:29;4.50;;;1.65;;
42972;SDS011;28610;51.214;6.962;2022-10-16T12:37:22;6.35;;;1.60;;
42972;SDS011;28610;51.214;6.962;2022-10-16T12:40:15;3.28;;;1.40;;
42972;SDS011;28610;51.214;6.962;2022-10-16T12:43:23;12.63;;;1.85;;
42972;SDS011;28610;51.214;6.962;2022-10-16T12:46:22;11.82;;;1.60;;
42972;SDS011;28610;51.214;6.962;2022-10-16T12:49:21;3.17;;;1.58;;
42972;SDS011;28610;51.214;6.962;2022-10-16T12:52:24;6.50;;;1.52;;
42972;SDS011;28610;51.214;6.962;2022-10-16T12:55:15;3.08;;;1.40;;
42972;SDS011;28610;51.214;6.962;2022-10-16T13:01:20;4.97;;;1.60;;
42972;SDS011;28610;51.214;6.962;2022-10-16T13:04:20;6.35;;;1.80;;
42972;SDS011;28610;51.214;6.962;2022-10-16T13:07:20;3.80;;;1.50;;
42972;SDS011;28610;51.214;6.962;2022-10-16T13:10:21;5.22;;;1.52;;
42972;SDS011;28610;51.214;6.962;2022-10-16T13:13:25;4.50;;;1.90;;
42972;SDS011;28610;51.214;6.962;2022-10-16T13:16:25;3.60;;;1.90;;
42972;SDS011;28610;51.214;6.962;2022-10-16T13:19:19;6.13;;;1.77;;
42972;SDS011;28610;51.214;6.962;2022-10-16T13:22:12;5.20;;;2.05;;
42972;SDS011;28610;51.214;6.962;2022-10-16T13:25:08;3.65;;;1.70;;
42972;SDS011;28610;51.214;6.962;2022-10-16T13:28:05;6.57;;;1.90;;
42972;SDS011;28610;51.214;6.962;2022-10-16T13:30:53;5.85;;;2.28;;
42972;SDS011;28610;51.214;6.962;2022-10-16T13:33:39;11.23;;;2.70;;
42972;SDS011;28610;51.214;6.962;2022-10-16T13:36:28;6.38;;;2.10;;
42972;SDS011;28610;51.214;6.962;2022-10-16T13:39:15;8.38;;;3.22;;
42972;SDS011;28610;51.214;6.962;2022-10-16T13:42:09;7.78;;;2.00;;
42972;SDS011;28610;51.214;6.962;2022-10-16T13:44:58;5.40;;;1.95;;
42972;SDS011;28610;51.214;6.962;2022-10-16T13:47:44;3.20;;;1.80;;
42972;SDS011;28610;51.214;6.962;2022-10-16T13:50:29;3.50;;;1.73;;
42972;SDS011;28610;51.214;6.962;2022-10-16T13:53:14;3.72;;;1.73;;
42972;SDS011;28610;51.214;6.962;2022-10-16T13:56:01;4.65;;;1.80;;
42972;SDS011;28610;51.214;6.962;2022-10-16T13:58:57;52.30;;;4.75;;
42972;SDS011;28610;51.214;6.962;2022-10-16T14:01:44;5.03;;;1.75;;
42972;SDS011;28610;51.214;6.962;2022-10-16T14:04:31;5.53;;;1.73;;
42972;SDS011;28610;51.214;6.962;2022-10-16T14:07:18;2.33;;;1.40;;
42972;SDS011;28610;51.214;6.962;2022-10-16T14:10:18;8.32;;;1.80;;
42972;SDS011;28610;51.214;6.962;2022-10-16T14:13:07;2.22;;;1.50;;
42972;SDS011;28610;51.214;6.962;2022-10-16T14:15:58;7.13;;;1.77;;
42972;SDS011;28610;51.214;6.962;2022-10-16T14:18:50;6.40;;;1.50;;
42972;SDS011;28610;51.214;6.962;2022-10-16T14:21:41;13.70;;;1.80;;
42972;SDS011;28610;51.214;6.962;2022-10-16T14:24:31;250.43;;;12.70;;
42972;SDS011;28610;51.214;6.962;2022-10-16T14:30:12;9.90;;;1.83;;
42972;SDS011;28610;51.214;6.962;2022-10-16T14:33:00;4.47;;;1.55;;
42972;SDS011;28610;51.214;6.962;2022-10-16T14:35:56;10.27;;;1.73;;
42972;SDS011;28610;51.214;6.962;2022-10-16T14:38:48;5.70;;;1.50;;
42972;SDS011;28610;51.214;6.962;2022-10-16T14:41:40;3.22;;;1.60;;
42972;SDS011;28610;51.214;6.962;2022-10-16T14:44:30;4.03;;;1.70;;
42972;SDS011;28610;51.214;6.962;2022-10-16T14:47:18;6.75;;;1.70;;
42972;SDS011;28610;51.214;6.962;2022-10-16T14:50:08;5.38;;;2.28;;
42972;SDS011;28610;51.214;6.962;2022-10-16T14:52:55;3.70;;;1.60;;
42972;SDS011;28610;51.214;6.962;2022-10-16T14:55:41;7.00;;;1.98;;
42972;SDS011;28610;51.214;6.962;2022-10-16T14:58:27;3.80;;;2.15;;
42972;SDS011;28610;51.214;6.962;2022-10-16T15:01:12;5.55;;;2.90;;
42972;SDS011;28610;51.214;6.962;2022-10-16T15:03:58;9.82;;;5.10;;
42972;SDS011;28610;51.214;6.962;2022-10-16T15:06:44;11.07;;;3.63;;
42972;SDS011;28610;51.214;6.962;2022-10-16T15:09:31;10.15;;;2.50;;
42972;SDS011;28610;51.214;6.962;2022-10-16T15:12:17;5.50;;;2.15;;
42972;SDS011;28610;51.214;6.962;2022-10-16T15:15:08;9.25;;;1.92;;
42972;SDS011;28610;51.214;6.962;2022-10-16T15:18:06;5.60;;;1.70;;
42972;SDS011;28610;51.214;6.962;2022-10-16T15:20:51;6.25;;;1.70;;
42972;SDS011;28610;51.214;6.962;2022-10-16T15:23:37;21.58;;;2.38;;
42972;SDS011;28610;51.214;6.962;2022-10-16T15:26:25;4.85;;;1.70;;
42972;SDS011;28610;51.214;6.962;2022-10-16T15:29:11;3.90;;;1.70;;
42972;SDS011;28610;51.214;6.962;2022-10-16T15:31:57;6.70;;;2.10;;
42972;SDS011;28610;51.214;6.962;2022-10-16T15:34:43;6.03;;;1.90;;
42972;SDS011;28610;51.214;6.962;2022-10-16T15:37:28;3.42;;;1.70;;
42972;SDS011;28610;51.214;6.962;2022-10-16T15:40:14;6.50;;;1.90;;
42972;SDS011;28610;51.214;6.962;2022-10-16T15:43:01;3.95;;;1.80;;
42972;SDS011;28610;51.214;6.962;2022-10-16T15:45:48;4.93;;;1.67;;
42972;SDS011;28610;51.214;6.962;2022-10-16T15:48:44;5.00;;;2.08;;
42972;SDS011;28610;51.214;6.962;2022-10-16T15:51:30;7.85;;;2.08;;
42972;SDS011;28610;51.214;6.962;2022-10-16T15:54:16;3.95;;;2.50;;
42972;SDS011;28610;51.214;6.962;2022-10-16T15:57:05;8.48;;;4.03;;
42972;SDS011;28610;51.214;6.962;2022-10-16T15:59:52;3.90;;;2.00;;
42972;SDS011;28610;51.214;6.962;2022-10-16T16:02:37;4.13;;;2.53;;
42972;SDS011;28610;51.214;6.962;2022-10-16T16:05:23;4.78;;;2.10;;
42972;SDS011;28610;51.214;6.962;2022-10-16T16:08:08;4.97;;;1.88;;
42972;SDS011;28610;51.214;6.962;2022-10-16T16:10:57;3.13;;;1.80;;
42972;SDS011;28610;51.214;6.962;2022-10-16T16:13:43;5.15;;;2.20;;
42972;SDS011;28610;51.214;6.962;2022-10-16T16:16:30;5.07;;;2.50;;
42972;SDS011;28610;51.214;6.962;2022-10-16T16:19:17;5.30;;;2.45;;
42972;SDS011;28610;51.214;6.962;2022-10-16T16:22:04;7.97;;;2.28;;
42972;SDS011;28610;51.214;6.962;2022-10-16T16:24:49;4.68;;;2.33;;
42972;SDS011;28610;51.214;6.962;2022-10-16T16:27:35;6.10;;;2.50;;
42972;SDS011;28610;51.214;6.962;2022-10-16T16:30:22;7.60;;;3.00;;
42972;SDS011;28610;51.214;6.962;2022-10-16T16:33:09;6.30;;;3.28;;
42972;SDS011;28610;51.214;6.962;2022-10-16T16:35:57;3.25;;;2.10;;
42972;SDS011;28610;51.214;6.962;2022-10-16T16:38:43;7.30;;;2.50;;
42972;SDS011;28610;51.214;6.962;2022-10-16T16:41:29;6.13;;;2.45;;
42972;SDS011;28610;51.214;6.962;2022-10-16T16:44:15;6.32;;;2.35;;
42972;SDS011;28610;51.214;6.962;2022-10-16T16:47:01;7.75;;;2.55;;
42972;SDS011;28610;51.214;6.962;2022-10-16T16:49:48;4.37;;;2.00;;
42972;SDS011;28610;51.214;6.962;2022-10-16T16:52:35;6.22;;;2.03;;
42972;SDS011;28610;51.214;6.962;2022-10-16T16:55:20;5.85;;;1.90;;
42972;SDS011;28610;51.214;6.962;2022-10-16T16:58:06;2.55;;;2.15;;
42972;SDS011;28610;51.214;6.962;2022-10-16T17:00:51;3.63;;;2.00;;
42972;SDS011;28610;51.214;6.962;2022-10-16T17:03:37;3.85;;;1.90;;
42972;SDS011;28610;51.214;6.962;2022-10-16T17:06:25;4.32;;;2.15;;